Map

Track Data

SID SEASON NUMBER BASIN SUBBASIN NAME ISO_TIME NATURE LAT LON WMO_WIND WMO_PRES WMO_AGENCY TRACK_TYPE DIST2LAND LANDFALL IFLAG USA_AGENCY USA_ATCF_ID USA_LAT USA_LON USA_RECORD USA_STATUS USA_WIND USA_PRES USA_SSHS USA_R34_NE USA_R34_SE USA_R34_SW USA_R34_NW USA_R50_NE USA_R50_SE USA_R50_SW USA_R50_NW USA_R64_NE USA_R64_SE USA_R64_SW USA_R64_NW USA_POCI USA_ROCI USA_RMW USA_EYE TOKYO_LAT TOKYO_LON TOKYO_GRADE TOKYO_WIND TOKYO_PRES TOKYO_R50_DIR TOKYO_R50_LONG TOKYO_R50_SHORT TOKYO_R30_DIR TOKYO_R30_LONG TOKYO_R30_SHORT TOKYO_LAND CMA_LAT CMA_LON CMA_CAT CMA_WIND CMA_PRES HKO_LAT HKO_LON HKO_CAT HKO_WIND HKO_PRES NEWDELHI_LAT NEWDELHI_LON NEWDELHI_GRADE NEWDELHI_WIND NEWDELHI_PRES NEWDELHI_CI NEWDELHI_DP NEWDELHI_POCI REUNION_LAT REUNION_LON REUNION_TYPE REUNION_WIND REUNION_PRES REUNION_TNUM REUNION_CI REUNION_RMW REUNION_R34_NE REUNION_R34_SE REUNION_R34_SW REUNION_R34_NW REUNION_R50_NE REUNION_R50_SE REUNION_R50_SW REUNION_R50_NW REUNION_R64_NE REUNION_R64_SE REUNION_R64_SW REUNION_R64_NW BOM_LAT BOM_LON BOM_TYPE BOM_WIND BOM_PRES BOM_TNUM BOM_CI BOM_RMW BOM_R34_NE BOM_R34_SE BOM_R34_SW BOM_R34_NW BOM_R50_NE BOM_R50_SE BOM_R50_SW BOM_R50_NW BOM_R64_NE BOM_R64_SE BOM_R64_SW BOM_R64_NW BOM_ROCI BOM_POCI BOM_EYE BOM_POS_METHOD BOM_PRES_METHOD NADI_LAT NADI_LON NADI_CAT NADI_WIND NADI_PRES WELLINGTON_LAT WELLINGTON_LON WELLINGTON_WIND WELLINGTON_PRES DS824_LAT DS824_LON DS824_STAGE DS824_WIND DS824_PRES TD9636_LAT TD9636_LON TD9636_STAGE TD9636_WIND TD9636_PRES TD9635_LAT TD9635_LON TD9635_WIND TD9635_PRES TD9635_ROCI NEUMANN_LAT NEUMANN_LON NEUMANN_CLASS NEUMANN_WIND NEUMANN_PRES MLC_LAT MLC_LON MLC_CLASS MLC_WIND MLC_PRES USA_GUST BOM_GUST BOM_GUST_PER REUNION_GUST REUNION_GUST_PER USA_SEAHGT USA_SEARAD_NE USA_SEARAD_SE USA_SEARAD_SW USA_SEARAD_NW STORM_SPEED STORM_DIR
1993120S10075 1993 28 SI MM KONITA 1993-04-29 18:00:00 TS -10.3000 74.5000 main 1936 1933 O___________O_ jtwc_sh SH261993 -10.3000 74.5000 15 -1 -10.3000 74.5000 TC 15 9 291
1993120S10075 1993 28 SI MM KONITA 1993-04-29 21:00:00 TS -10.1501 74.0924 main 1940 1930 P___________P_ SH261993 -10.1501 74.0924 15 -1 -10.1501 74.0924 TC 15 8 291
1993120S10075 1993 28 SI MM KONITA 1993-04-30 00:00:00 TS -10.0000 73.7000 main 1936 1930 O___________O_ jtwc_sh SH261993 -10.0000 73.7000 15 -1 -10.0000 73.7000 TC 15 8 292
1993120S10075 1993 28 SI MM KONITA 1993-04-30 03:00:00 TS -9.84996 73.3350 main 1933 1931 P___________P_ SH261993 -9.84996 73.3350 15 -1 -9.84996 73.3350 TC 15 8 294
1993120S10075 1993 28 SI MM KONITA 1993-04-30 06:00:00 TS -9.70000 73.0000 main 1936 1931 O___________O_ jtwc_sh SH261993 -9.70000 73.0000 15 -1 -9.70000 73.0000 TC 15 7 295
1993120S10075 1993 28 SI MM KONITA 1993-04-30 09:00:00 TS -9.55745 72.6926 main 1940 1930 P___________P_ SH261993 -9.55745 72.6926 17 -1 -9.55745 72.6926 TC 17 7 297
1993120S10075 1993 28 SI MM KONITA 1993-04-30 12:00:00 TS -9.40000 72.4000 main 1935 1930 O___________O_ jtwc_sh SH261993 -9.40000 72.4000 20 -1 -9.40000 72.4000 TC 20 7 301
1993120S10075 1993 28 SI MM KONITA 1993-04-30 15:00:00 TS -9.20749 72.0925 main 1930 1921 P___________P_ SH261993 -9.20749 72.0925 20 -1 -9.20749 72.0925 TC 20 7 304
1993120S10075 1993 28 SI MM KONITA 1993-04-30 18:00:00 TS -9.00000 71.8000 main 1927 1918 O___________O_ jtwc_sh SH261993 -9.00000 71.8000 20 -1 -9.00000 71.8000 TC 20 7 306
1993120S10075 1993 28 SI MM KONITA 1993-04-30 21:00:00 TS -8.80747 71.5426 main 1924 1911 P___________P_ SH261993 -8.80747 71.5426 20 -1 -8.80747 71.5426 TC 20 6 309
1993120S10075 1993 28 SI MM KONITA 1993-05-01 00:00:00 TS -8.60000 71.3000 main 1916 1909 O___________O_ jtwc_sh SH261993 -8.60000 71.3000 20 -1 -8.60000 71.3000 TC 20 7 311
1993120S10075 1993 28 SI MM KONITA 1993-05-01 03:00:00 TS -8.36502 71.0275 main 1915 1899 P___________P_ SH261993 -8.36502 71.0275 22 -1 -8.36502 71.0275 TC 22 7 315
1993120S10075 1993 28 SI MM KONITA 1993-05-01 06:00:00 TS -8.10000 70.8000 main 1899 1878 O___________O_ jtwc_sh SH261993 -8.10000 70.8000 25 -1 -8.10000 70.8000 TC 25 7 327
1993120S10075 1993 28 SI MM KONITA 1993-05-01 09:00:00 TS -7.79998 70.6625 main 1878 1857 P___________P_ SH261993 -7.79998 70.6625 25 -1 -7.79998 70.6625 TC 25 6 342
1993120S10075 1993 28 SI MM KONITA 1993-05-01 12:00:00 TS -7.50000 70.6000 main 1857 1836 O___________O_ jtwc_sh SH261993 -7.50000 70.6000 25 -1 -7.50000 70.6000 TC 25 6 349
1993120S10075 1993 28 SI MM KONITA 1993-05-01 15:00:00 TS -7.23497 70.5475 main 1836 1811 P___________P_ SH261993 -7.23497 70.5475 25 -1 -7.23497 70.5475 TC 25 5 2
1993120S10075 1993 28 SI MM KONITA 1993-05-01 18:00:00 TS -7.00000 70.6000 main 1811 1780 O___________O_ jtwc_sh SH261993 -7.00000 70.6000 25 -1 -7.00000 70.6000 TC 25 6 28
1993120S10075 1993 28 SI MM KONITA 1993-05-01 21:00:00 TS -6.74003 70.8126 main 1771 1743 P___________P_ SH261993 -6.74003 70.8126 27 -1 -6.74003 70.8126 TC 27 6 51
1993120S10075 1993 28 SI MM KONITA 1993-05-02 00:00:00 TS -6.60000 71.1000 main 1743 1730 O___________O_ jtwc_sh SH261993 -6.60000 71.1000 30 -1 -6.60000 71.1000 TC 30 6 84
1993120S10075 1993 28 SI MM KONITA 1993-05-02 03:00:00 TS -6.68253 71.4024 main 1732 1726 P___________P_ SH261993 -6.68253 71.4024 32 -1 -6.68253 71.4024 TC 32 6 121
1993120S10075 1993 28 SI MM KONITA 1993-05-02 06:00:00 TS -6.90000 71.6000 main 1738 1738 O___________O_ jtwc_sh SH261993 -6.90000 71.6000 35 0 -6.90000 71.6000 TC 35 5 161
1993120S10075 1993 28 SI MM KONITA 1993-05-02 09:00:00 TS -7.14997 71.5676 main 1757 1757 P___________P_ SH261993 -7.14997 71.5676 40 0 -7.14997 71.5676 TC 40 5 194
1993120S10075 1993 28 SI MM KONITA 1993-05-02 12:00:00 TS -7.41111 71.4667 23 1000 reunion main 1791 1791 O____O______O_ jtwc_sh SH261993 -7.40000 71.4000 45 0 -7.50000 72.0000 2 23 1000 2.00000 2.00000 -7.40000 71.4000 TC 45 5 207
1993120S10075 1993 28 SI MM KONITA 1993-05-02 15:00:00 TS -7.54951 71.3605 main 1806 1806 P____P______P_ SH261993 -7.57251 71.2150 47 0 -7.45753 71.9425 2 25 999 -7.57251 71.2150 TC 47 3 227
1993120S10075 1993 28 SI MM KONITA 1993-05-02 18:00:00 TS -7.61818 71.2455 27 998 reunion main 1828 1828 O____O______O_ jtwc_sh SH261993 -7.70000 71.0000 50 0 -7.40000 71.9000 2 27 998 2.50000 2.50000 -7.70000 71.0000 TC 50 2 244
1993120S10075 1993 28 SI MM KONITA 1993-05-02 21:00:00 TS -7.64663 71.1583 main 1828 1828 P____P______P_ SH261993 -7.79998 70.8075 50 0 -7.33992 71.8599 2 28 997 -7.79998 70.8075 TC 50 3 247
1993120S10075 1993 28 SI MM KONITA 1993-05-03 00:00:00 TS -7.73333 70.9667 30 996 reunion main 1850 1850 O____O______O_ jtwc_sh SH261993 -7.90000 70.6000 50 0 -7.40000 71.7000 2 30 996 2.50000 2.50000 -7.90000 70.6000 TC 50 5 240
1993120S10075 1993 28 SI MM KONITA 1993-05-03 03:00:00 TS -7.91499 70.6824 main 1887 1887 P____P______P_ SH261993 -8.04250 70.3575 52 0 -7.65997 71.3323 2 30 996 -8.04250 70.3575 TC 52 8 235
1993120S10075 1993 28 SI MM KONITA 1993-05-03 06:00:00 TS -8.16667 70.3333 30 996 reunion main 1900 1853 O____O______O_ jtwc_sh SH261993 -8.20000 70.1000 55 0 -8.10000 70.8000 2 30 996 2.50000 2.50000 -8.20000 70.1000 TC 55 9 232
1993120S10075 1993 28 SI MM KONITA 1993-05-03 09:00:00 TS -8.48425 69.9402 main 1846 1799 P____P______P_ SH261993 -8.34998 69.8500 55 0 -8.75277 70.1207 2 30 995 -8.34998 69.8500 TC 55 10 232
1993120S10075 1993 28 SI MM KONITA 1993-05-03 12:00:00 TS -8.76667 69.5667 30 995 reunion main 1799 1768 O____O______O_ jtwc_sh SH261993 -8.50000 69.6000 55 0 -9.30000 69.5000 2 30 995 2.50000 2.50000 -8.50000 69.6000 TC 55 8 237
1993120S10075 1993 28 SI MM KONITA 1993-05-03 15:00:00 TS -8.89158 69.2940 main 1768 1744 P____P______P_ SH261993 -8.64248 69.3500 57 0 -9.38979 69.1821 2 33 992 -8.64248 69.3500 TC 57 5 248
1993120S10075 1993 28 SI MM KONITA 1993-05-03 18:00:00 TS -8.96667 69.0667 37 990 reunion main 1744 1714 O____O______O_ jtwc_sh SH261993 -8.80000 69.1000 60 0 -9.30000 69.0000 3 37 990 3.00000 3.00000 -8.80000 69.1000 TC 60 5 248
1993120S10075 1993 28 SI MM KONITA 1993-05-03 21:00:00 TS -9.08501 68.8133 main 1714 1691 P____P______P_ SH261993 -8.99251 68.8350 62 0 -9.27000 68.7700 3 37 990 -8.99251 68.8350 TC 62 5 240
1993120S10075 1993 28 SI MM KONITA 1993-05-04 00:00:00 TS -9.23333 68.6000 37 990 reunion main 1691 1667 O____O______O_ jtwc_sh SH261993 -9.20000 68.6000 65 1 -9.30000 68.6000 3 37 990 3.00000 3.00000 -9.20000 68.6000 TC 65 5 227
1993120S10075 1993 28 SI MM KONITA 1993-05-04 03:00:00 TS -9.41582 68.4508 main 1667 1643 P____P______P_ SH261993 -9.39998 68.4200 67 1 -9.44748 68.5125 3 40 987 -9.39998 68.4200 TC 67 5 210
1993120S10075 1993 28 SI MM KONITA 1993-05-04 06:00:00 TS -9.63333 68.3667 43 984 reunion main 1643 1611 O____O______O_ jtwc_sh SH261993 -9.60000 68.3000 70 1 -9.70000 68.5000 3 43 984 3.50000 3.50000 -9.60000 68.3000 TC 70 5 193
1993120S10075 1993 28 SI MM KONITA 1993-05-04 09:00:00 TS -9.89083 68.3350 main 1611 1595 P____P______P_ SH261993 -9.79999 68.2275 72 1 -10.0725 68.5499 3 48 979 -9.79999 68.2275 TC 72 5 185
1993120S10075 1993 28 SI MM KONITA 1993-05-04 12:00:00 TS -10.1333 68.3333 53 975 reunion main 1595 1579 O____O______O_ jtwc_sh SH261993 -10.0000 68.2000 75 1 -10.4000 68.6000 3 53 975 4.00000 4.00000 -10.0000 68.2000 TC 75 4 183
1993120S10075 1993 28 SI MM KONITA 1993-05-04 15:00:00 TS -10.3033 68.3117 main 1579 1571 P____P______P_ SH261993 -10.2075 68.1850 75 1 -10.4950 68.5650 3 58 970 -10.2075 68.1850 TC 75 3 185
1993120S10075 1993 28 SI MM KONITA 1993-05-04 18:00:00 TS -10.4333 68.3000 63 966 reunion main 1571 1563 O____O______O_ jtwc_sh SH261993 -10.4000 68.2000 75 1 -10.5000 68.5000 3 63 966 4.50000 4.50000 -10.4000 68.2000 TC 75 2 186
1993120S10075 1993 28 SI MM KONITA 1993-05-04 21:00:00 TS -10.5425 68.3092 main 1563 1547 P____P______P_ SH261993 -10.5575 68.2500 80 1 -10.5125 68.4275 3 66 960 -10.5575 68.2500 TC 80 2 169
1993120S10075 1993 28 SI MM KONITA 1993-05-05 00:00:00 TS -10.6667 68.3333 70 955 reunion main 1547 1539 O____O______O_ jtwc_sh SH261993 -10.7000 68.3000 85 2 -10.6000 68.4000 4 70 955 5.00000 5.00000 -10.7000 68.3000 TC 85 3 170
1993120S10075 1993 28 SI MM KONITA 1993-05-05 03:00:00 TS -10.8642 68.3592 main 1540 1524 P____P______P_ SH261993 -10.8575 68.3000 87 2 -10.8775 68.4774 4 70 955 -10.8575 68.3000 TC 87 4 171
1993120S10075 1993 28 SI MM KONITA 1993-05-05 06:00:00 TS -11.0667 68.4000 70 955 reunion main 1524 1517 O____O______O_ jtwc_sh SH261993 -11.0000 68.3000 90 2 -11.2000 68.6000 4 70 955 4.50000 5.00000 -11.0000 68.3000 TC 90 4 164
1993120S10075 1993 28 SI MM KONITA 1993-05-05 09:00:00 TS -11.2225 68.4642 main 1525 1517 P____P______P_ SH261993 -11.1150 68.3425 87 2 -11.4375 68.7075 4 66 960 -11.1150 68.3425 TC 87 3 154
1993120S10075 1993 28 SI MM KONITA 1993-05-05 12:00:00 TS -11.3333 68.5333 63 965 reunion main 1517 1510 O____O______O_ jtwc_sh SH261993 -11.2000 68.4000 85 2 -11.6000 68.8000 3 63 965 4.00000 4.50000 -11.2000 68.4000 TC 85 2 147
1993120S10075 1993 28 SI MM KONITA 1993-05-05 15:00:00 TS -11.4108 68.5858 main 1518 1518 P____P______P_ SH261993 -11.2725 68.4500 82 1 -11.6875 68.8575 3 58 970 -11.2725 68.4500 TC 82 1 137
1993120S10075 1993 28 SI MM KONITA 1993-05-05 18:00:00 TS -11.4333 68.6333 53 975 reunion main 1518 1518 O____O______O_ jtwc_sh SH261993 -11.3000 68.5000 80 1 -11.7000 68.9000 3 53 975 3.50000 4.00000 -11.3000 68.5000 TC 80 1 90
1993120S10075 1993 28 SI MM KONITA 1993-05-05 21:00:00 TS -11.4108 68.6858 main 1526 1526 P____P______P_ SH261993 -11.2725 68.5500 75 1 -11.6875 68.9575 3 48 980 -11.2725 68.5500 TC 75 1 43
1993120S10075 1993 28 SI MM KONITA 1993-05-06 00:00:00 TS -11.3333 68.7333 43 985 reunion main 1534 1534 O____O______O_ jtwc_sh SH261993 -11.2000 68.6000 70 1 -11.6000 69.0000 3 43 985 3.00000 3.50000 -11.2000 68.6000 TC 70 2 23
1993120S10075 1993 28 SI MM KONITA 1993-05-06 03:00:00 TS -11.2250 68.7617 main 1549 1549 P____P______P_ SH261993 -11.1150 68.6425 62 0 -11.4450 69.0000 3 40 987 -11.1150 68.6425 TC 62 3 13
1993120S10075 1993 28 SI MM KONITA 1993-05-06 06:00:00 TS -11.0667 68.8000 37 990 reunion main 1557 1557 O____O______O_ jtwc_sh SH261993 -11.0000 68.7000 55 0 -11.2000 69.0000 3 37 990 2.50000 3.00000 -11.0000 68.7000 TC 55 4 19
1993120S10075 1993 28 SI MM KONITA 1993-05-06 09:00:00 TS -10.8400 68.8934 main 1587 1587 P____P______P_ SH261993 -10.8500 68.8075 50 0 -10.8200 69.0651 3 35 991 -10.8500 68.8075 TC 50 5 21
1993120S10075 1993 28 SI MM KONITA 1993-05-06 12:00:00 TS -10.6333 68.9667 33 992 reunion main 1611 1611 O____O______O_ jtwc_sh SH261993 -10.7000 68.9000 45 0 -10.5000 69.1000 3 33 992 2.00000 3.00000 -10.7000 68.9000 TC 45 3 11
1993120S10075 1993 28 SI MM KONITA 1993-05-06 15:00:00 TS -10.5367 68.9558 main 1618 1610 P____P______P_ SH261993 -10.5850 68.9300 45 0 -10.4400 69.0075 3 31 994 -10.5850 68.9300 TC 45 1 334
1993120S10075 1993 28 SI MM KONITA 1993-05-06 18:00:00 TS -10.5000 68.9000 30 996 reunion main 1610 1602 O____O______O_ jtwc_sh SH261993 -10.5000 68.9000 45 0 -10.5000 68.9000 2 30 996 2.00000 2.50000 -10.5000 68.9000 TC 45 2 304
1993120S10075 1993 28 SI MM KONITA 1993-05-06 21:00:00 TS -10.4535 68.8265 main 1602 1602 P____P______P_ SH261993 -10.4275 68.8150 40 0 -10.5575 68.8725 2 26 998 -10.4275 68.8150 TC 40 2 294
1993120S10075 1993 28 SI MM KONITA 1993-05-07 00:00:00 TS -10.4222 68.7222 23 1000 reunion main 1602 1594 O____O______O_ jtwc_sh SH261993 -10.4000 68.7000 35 0 -10.6000 68.9000 6 23 1000 2.00000 2.00000 -10.4000 68.7000 TC 35 2 277
1993120S10075 1993 28 SI MM KONITA 1993-05-07 03:00:00 TS -10.4275 68.6000 main 1594 1579 P___________P_ SH261993 -10.4275 68.6000 35 0 6 -10.4275 68.6000 TC 35 2 251
1993120S10075 1993 28 SI MM KONITA 1993-05-07 06:00:00 TS -10.5000 68.5000 main 1579 1563 O___________O_ jtwc_sh SH261993 -10.5000 68.5000 35 0 -10.5000 68.5000 TC 35 3 230
1993120S10075 1993 28 SI MM KONITA 1993-05-07 09:00:00 TS -10.5950 68.4000 main 1563 1547 P___________P_ SH261993 -10.5950 68.4000 32 -1 -10.5950 68.4000 TC 32 3 225
1993120S10075 1993 28 SI MM KONITA 1993-05-07 12:00:00 TS -10.7000 68.3000 main 1547 O___________O_ jtwc_sh SH261993 -10.7000 68.3000 30 -1 -10.7000 68.3000 TC 30 3 223

About IBTrACS Database

This database is a web-friendly format of International Best Track Archive for Climate Stewardship (IBTrACS), a global best track data archive curated by NOAA dating back to 1842.

Updated: 2021-12-03